Main page
METAR-TAF:

METAR-TAF

Airports :

Logroño, Spain

Logroño–Agoncillo Airport

latitude: 42-27N, longitude: 002-20W, elevation: 353 m

Current weather observation

The report was made 6 hours and 53 minutes ago, at 21:00 UTC
Wind 2 kt from variable directions
Temperature 12°C
Humidity 71%
Pressure 1024 hPa
Visibility 10 km or more
no clouds below 1500 m and no cumulonimbus

METAR: LELO 192100Z VRB02KT CAVOK 12/07 Q1024

Time: 05:53 (03:53 UTC)

Forecast

The report was made 1 hour and 53 minutes ago, at 02:00 UTC
Forecast valid from 20 at 03 UTC to 20 at 12 UTC
Wind 5 kt from variable directions
Visibility 10 km or more
no clouds below 1500 m and no cumulonimbus

TAF: LELO 200200Z 2003/2012 VRB05KT CAVOK

Weather observations and forecasts of more than 4000 airports (METAR and TAF reports).

The available stations are represented by yellow and red dots on the map.

Hover mouse over dot to see the name of the station.

Then click to see weather observations and forecasts.

To change the map : click on the green buttons with a black cross to zoom in, on the green button with a dash to zoom out, or on the green arrows for adjacent maps.


METAR-TAF: